sensor_id;sensor_type;location;lat;lon;timestamp;P1;durP1;ratioP1;P2;durP2;ratioP2
55455;SDS011;63021;52.836;6.376;2022-11-20T00:00:56;34.60;;;18.95;;
55455;SDS011;63021;52.836;6.376;2022-11-20T00:03:22;26.58;;;18.83;;
55455;SDS011;63021;52.836;6.376;2022-11-20T00:05:47;24.52;;;17.00;;
55455;SDS011;63021;52.836;6.376;2022-11-20T00:08:13;26.27;;;16.65;;
55455;SDS011;63021;52.836;6.376;2022-11-20T00:10:39;28.52;;;17.52;;
55455;SDS011;63021;52.836;6.376;2022-11-20T00:13:05;27.83;;;16.52;;
55455;SDS011;63021;52.836;6.376;2022-11-20T00:15:31;20.70;;;15.05;;
55455;SDS011;63021;52.836;6.376;2022-11-20T00:17:57;23.80;;;15.65;;
55455;SDS011;63021;52.836;6.376;2022-11-20T00:20:22;30.05;;;18.20;;
55455;SDS011;63021;52.836;6.376;2022-11-20T00:22:49;29.42;;;17.95;;
55455;SDS011;63021;52.836;6.376;2022-11-20T00:25:15;31.02;;;16.65;;
55455;SDS011;63021;52.836;6.376;2022-11-20T00:27:41;32.55;;;18.55;;
55455;SDS011;63021;52.836;6.376;2022-11-20T00:30:07;31.90;;;18.83;;
55455;SDS011;63021;52.836;6.376;2022-11-20T00:32:32;26.23;;;18.52;;
55455;SDS011;63021;52.836;6.376;2022-11-20T00:34:58;26.55;;;16.45;;
55455;SDS011;63021;52.836;6.376;2022-11-20T00:37:23;28.75;;;17.10;;
55455;SDS011;63021;52.836;6.376;2022-11-20T00:39:48;28.65;;;16.48;;
55455;SDS011;63021;52.836;6.376;2022-11-20T00:42:14;28.67;;;16.85;;
55455;SDS011;63021;52.836;6.376;2022-11-20T00:44:39;28.40;;;17.50;;
55455;SDS011;63021;52.836;6.376;2022-11-20T00:47:04;23.92;;;16.83;;
55455;SDS011;63021;52.836;6.376;2022-11-20T00:49:30;30.45;;;18.35;;
55455;SDS011;63021;52.836;6.376;2022-11-20T00:51:55;24.40;;;16.23;;
55455;SDS011;63021;52.836;6.376;2022-11-20T00:54:21;23.65;;;16.10;;
55455;SDS011;63021;52.836;6.376;2022-11-20T00:56:46;25.00;;;16.00;;
55455;SDS011;63021;52.836;6.376;2022-11-20T00:59:11;23.75;;;16.00;;
55455;SDS011;63021;52.836;6.376;2022-11-20T01:01:37;24.60;;;15.68;;
55455;SDS011;63021;52.836;6.376;2022-11-20T01:04:03;28.10;;;16.48;;
55455;SDS011;63021;52.836;6.376;2022-11-20T01:06:32;28.75;;;17.58;;
55455;SDS011;63021;52.836;6.376;2022-11-20T01:09:00;29.65;;;17.83;;
55455;SDS011;63021;52.836;6.376;2022-11-20T01:11:32;25.70;;;16.77;;
55455;SDS011;63021;52.836;6.376;2022-11-20T01:13:59;25.27;;;16.42;;
55455;SDS011;63021;52.836;6.376;2022-11-20T01:18:54;24.63;;;15.52;;
55455;SDS011;63021;52.836;6.376;2022-11-20T01:21:26;25.30;;;15.70;;
55455;SDS011;63021;52.836;6.376;2022-11-20T01:23:54;20.95;;;14.82;;
55455;SDS011;63021;52.836;6.376;2022-11-20T01:26:21;22.98;;;15.55;;
55455;SDS011;63021;52.836;6.376;2022-11-20T01:28:49;23.23;;;15.85;;
55455;SDS011;63021;52.836;6.376;2022-11-20T01:31:25;23.27;;;16.13;;
55455;SDS011;63021;52.836;6.376;2022-11-20T01:33:53;21.73;;;14.25;;
55455;SDS011;63021;52.836;6.376;2022-11-20T01:36:20;26.25;;;16.27;;
55455;SDS011;63021;52.836;6.376;2022-11-20T01:38:50;25.00;;;15.45;;
55455;SDS011;63021;52.836;6.376;2022-11-20T01:41:18;26.92;;;15.18;;
55455;SDS011;63021;52.836;6.376;2022-11-20T01:44:02;20.80;;;14.82;;
55455;SDS011;63021;52.836;6.376;2022-11-20T01:46:28;26.85;;;15.27;;
55455;SDS011;63021;52.836;6.376;2022-11-20T01:51:40;24.33;;;14.57;;
55455;SDS011;63021;52.836;6.376;2022-11-20T01:54:12;22.33;;;14.35;;
55455;SDS011;63021;52.836;6.376;2022-11-20T01:56:42;25.20;;;16.85;;
55455;SDS011;63021;52.836;6.376;2022-11-20T01:59:10;27.08;;;15.40;;
55455;SDS011;63021;52.836;6.376;2022-11-20T02:01:38;26.80;;;17.38;;
55455;SDS011;63021;52.836;6.376;2022-11-20T02:04:04;24.27;;;15.40;;
55455;SDS011;63021;52.836;6.376;2022-11-20T02:06:39;26.00;;;15.38;;
55455;SDS011;63021;52.836;6.376;2022-11-20T02:09:08;28.48;;;17.77;;
55455;SDS011;63021;52.836;6.376;2022-11-20T02:11:34;32.03;;;19.00;;
55455;SDS011;63021;52.836;6.376;2022-11-20T02:13:59;33.83;;;17.75;;
55455;SDS011;63021;52.836;6.376;2022-11-20T02:16:27;29.88;;;17.17;;
55455;SDS011;63021;52.836;6.376;2022-11-20T02:18:56;27.10;;;17.00;;
55455;SDS011;63021;52.836;6.376;2022-11-20T02:21:30;27.77;;;14.60;;
55455;SDS011;63021;52.836;6.376;2022-11-20T02:24:07;25.95;;;17.70;;
55455;SDS011;63021;52.836;6.376;2022-11-20T02:26:41;30.17;;;16.17;;
55455;SDS011;63021;52.836;6.376;2022-11-20T02:29:12;28.35;;;17.33;;
55455;SDS011;63021;52.836;6.376;2022-11-20T02:31:41;27.35;;;15.35;;
55455;SDS011;63021;52.836;6.376;2022-11-20T02:34:08;25.30;;;16.00;;
55455;SDS011;63021;52.836;6.376;2022-11-20T02:36:34;24.27;;;15.20;;
55455;SDS011;63021;52.836;6.376;2022-11-20T02:39:03;23.15;;;15.38;;
55455;SDS011;63021;52.836;6.376;2022-11-20T02:41:32;26.17;;;15.43;;
55455;SDS011;63021;52.836;6.376;2022-11-20T02:43:59;23.58;;;14.32;;
55455;SDS011;63021;52.836;6.376;2022-11-20T02:46:25;22.55;;;13.35;;
55455;SDS011;63021;52.836;6.376;2022-11-20T02:48:50;18.98;;;13.32;;
55455;SDS011;63021;52.836;6.376;2022-11-20T02:51:15;22.15;;;13.32;;
55455;SDS011;63021;52.836;6.376;2022-11-20T02:53:44;23.67;;;14.57;;
55455;SDS011;63021;52.836;6.376;2022-11-20T02:56:11;22.30;;;13.55;;
55455;SDS011;63021;52.836;6.376;2022-11-20T02:58:36;21.13;;;13.73;;
55455;SDS011;63021;52.836;6.376;2022-11-20T03:01:02;20.30;;;12.10;;
55455;SDS011;63021;52.836;6.376;2022-11-20T03:03:27;19.38;;;12.75;;
55455;SDS011;63021;52.836;6.376;2022-11-20T03:05:53;21.75;;;13.57;;
55455;SDS011;63021;52.836;6.376;2022-11-20T03:08:22;22.70;;;14.40;;
55455;SDS011;63021;52.836;6.376;2022-11-20T03:10:48;18.13;;;12.02;;
55455;SDS011;63021;52.836;6.376;2022-11-20T03:13:13;19.17;;;12.65;;
55455;SDS011;63021;52.836;6.376;2022-11-20T03:15:38;19.85;;;13.05;;
55455;SDS011;63021;52.836;6.376;2022-11-20T03:18:04;16.70;;;11.52;;
55455;SDS011;63021;52.836;6.376;2022-11-20T03:20:29;21.42;;;12.50;;
55455;SDS011;63021;52.836;6.376;2022-11-20T03:22:55;20.42;;;12.60;;
55455;SDS011;63021;52.836;6.376;2022-11-20T03:25:21;18.17;;;12.13;;
55455;SDS011;63021;52.836;6.376;2022-11-20T03:27:47;19.23;;;11.98;;
55455;SDS011;63021;52.836;6.376;2022-11-20T03:30:13;20.27;;;11.90;;
55455;SDS011;63021;52.836;6.376;2022-11-20T03:32:45;18.20;;;11.82;;
55455;SDS011;63021;52.836;6.376;2022-11-20T03:35:12;21.23;;;12.65;;
55455;SDS011;63021;52.836;6.376;2022-11-20T03:37:37;22.55;;;12.13;;
55455;SDS011;63021;52.836;6.376;2022-11-20T03:40:03;24.77;;;12.75;;
55455;SDS011;63021;52.836;6.376;2022-11-20T03:42:29;16.98;;;11.93;;
55455;SDS011;63021;52.836;6.376;2022-11-20T03:45:13;23.53;;;13.07;;
55455;SDS011;63021;52.836;6.376;2022-11-20T03:47:40;18.45;;;12.88;;
55455;SDS011;63021;52.836;6.376;2022-11-20T03:50:06;22.27;;;12.52;;
55455;SDS011;63021;52.836;6.376;2022-11-20T03:52:35;17.70;;;12.38;;
55455;SDS011;63021;52.836;6.376;2022-11-20T03:55:02;19.50;;;12.25;;
55455;SDS011;63021;52.836;6.376;2022-11-20T03:57:27;17.52;;;11.65;;
55455;SDS011;63021;52.836;6.376;2022-11-20T03:59:52;17.38;;;11.82;;
55455;SDS011;63021;52.836;6.376;2022-11-20T04:02:18;21.60;;;14.38;;
55455;SDS011;63021;52.836;6.376;2022-11-20T04:04:43;18.80;;;13.23;;
55455;SDS011;63021;52.836;6.376;2022-11-20T04:07:09;21.70;;;12.88;;
55455;SDS011;63021;52.836;6.376;2022-11-20T04:09:37;17.10;;;11.05;;
55455;SDS011;63021;52.836;6.376;2022-11-20T04:12:03;19.17;;;12.60;;
55455;SDS011;63021;52.836;6.376;2022-11-20T04:14:28;20.88;;;13.40;;
55455;SDS011;63021;52.836;6.376;2022-11-20T04:16:54;18.90;;;12.70;;
55455;SDS011;63021;52.836;6.376;2022-11-20T04:19:19;19.52;;;12.98;;
55455;SDS011;63021;52.836;6.376;2022-11-20T04:21:45;17.88;;;12.95;;
55455;SDS011;63021;52.836;6.376;2022-11-20T04:24:10;17.40;;;12.43;;
55455;SDS011;63021;52.836;6.376;2022-11-20T04:26:35;20.33;;;12.55;;
55455;SDS011;63021;52.836;6.376;2022-11-20T04:29:02;20.35;;;13.23;;
55455;SDS011;63021;52.836;6.376;2022-11-20T04:31:29;20.88;;;12.43;;
55455;SDS011;63021;52.836;6.376;2022-11-20T04:34:01;18.85;;;12.40;;
55455;SDS011;63021;52.836;6.376;2022-11-20T04:36:28;21.05;;;12.88;;
55455;SDS011;63021;52.836;6.376;2022-11-20T04:38:56;19.88;;;12.55;;
55455;SDS011;63021;52.836;6.376;2022-11-20T04:41:27;17.50;;;11.57;;
55455;SDS011;63021;52.836;6.376;2022-11-20T04:43:56;22.15;;;12.65;;
55455;SDS011;63021;52.836;6.376;2022-11-20T04:46:28;19.25;;;12.40;;
55455;SDS011;63021;52.836;6.376;2022-11-20T04:48:55;17.35;;;11.77;;
55455;SDS011;63021;52.836;6.376;2022-11-20T04:51:20;17.10;;;12.20;;
55455;SDS011;63021;52.836;6.376;2022-11-20T04:53:46;22.13;;;13.07;;
55455;SDS011;63021;52.836;6.376;2022-11-20T04:56:12;17.98;;;12.13;;
55455;SDS011;63021;52.836;6.376;2022-11-20T04:58:38;17.58;;;11.80;;
55455;SDS011;63021;52.836;6.376;2022-11-20T05:01:09;20.95;;;12.85;;
55455;SDS011;63021;52.836;6.376;2022-11-20T05:03:37;22.05;;;12.32;;
55455;SDS011;63021;52.836;6.376;2022-11-20T05:06:04;17.45;;;12.00;;
55455;SDS011;63021;52.836;6.376;2022-11-20T05:08:30;18.30;;;11.43;;
55455;SDS011;63021;52.836;6.376;2022-11-20T05:11:00;16.90;;;11.90;;
55455;SDS011;63021;52.836;6.376;2022-11-20T05:13:29;18.98;;;11.98;;
55455;SDS011;63021;52.836;6.376;2022-11-20T05:15:54;17.80;;;12.80;;
55455;SDS011;63021;52.836;6.376;2022-11-20T05:18:19;19.48;;;11.90;;
55455;SDS011;63021;52.836;6.376;2022-11-20T05:20:45;17.90;;;12.43;;
55455;SDS011;63021;52.836;6.376;2022-11-20T05:23:10;19.70;;;11.82;;
55455;SDS011;63021;52.836;6.376;2022-11-20T05:25:35;20.83;;;12.35;;
55455;SDS011;63021;52.836;6.376;2022-11-20T05:28:01;19.55;;;12.20;;
55455;SDS011;63021;52.836;6.376;2022-11-20T05:30:26;20.98;;;12.95;;
55455;SDS011;63021;52.836;6.376;2022-11-20T05:32:51;18.40;;;12.88;;
55455;SDS011;63021;52.836;6.376;2022-11-20T05:35:17;21.92;;;12.82;;
55455;SDS011;63021;52.836;6.376;2022-11-20T05:37:42;19.15;;;12.90;;
55455;SDS011;63021;52.836;6.376;2022-11-20T05:40:08;23.83;;;14.32;;
55455;SDS011;63021;52.836;6.376;2022-11-20T05:42:34;21.40;;;12.63;;
55455;SDS011;63021;52.836;6.376;2022-11-20T05:45:01;24.92;;;14.65;;
55455;SDS011;63021;52.836;6.376;2022-11-20T05:47:28;25.70;;;14.48;;
55455;SDS011;63021;52.836;6.376;2022-11-20T05:49:58;23.45;;;14.65;;
55455;SDS011;63021;52.836;6.376;2022-11-20T05:52:23;20.27;;;13.68;;
55455;SDS011;63021;52.836;6.376;2022-11-20T05:54:49;19.90;;;13.98;;
55455;SDS011;63021;52.836;6.376;2022-11-20T05:57:14;20.90;;;14.18;;
55455;SDS011;63021;52.836;6.376;2022-11-20T05:59:40;21.17;;;14.07;;
55455;SDS011;63021;52.836;6.376;2022-11-20T06:02:05;19.40;;;13.43;;
55455;SDS011;63021;52.836;6.376;2022-11-20T06:04:31;19.60;;;13.70;;
55455;SDS011;63021;52.836;6.376;2022-11-20T06:06:56;23.65;;;14.25;;
55455;SDS011;63021;52.836;6.376;2022-11-20T06:09:21;19.02;;;13.65;;
55455;SDS011;63021;52.836;6.376;2022-11-20T06:11:47;21.95;;;12.98;;
55455;SDS011;63021;52.836;6.376;2022-11-20T06:14:12;19.80;;;13.55;;
55455;SDS011;63021;52.836;6.376;2022-11-20T06:16:37;23.02;;;14.32;;
55455;SDS011;63021;52.836;6.376;2022-11-20T06:19:03;19.55;;;12.57;;
55455;SDS011;63021;52.836;6.376;2022-11-20T06:21:28;18.73;;;12.82;;
55455;SDS011;63021;52.836;6.376;2022-11-20T06:23:53;15.82;;;11.70;;
55455;SDS011;63021;52.836;6.376;2022-11-20T06:26:20;18.17;;;12.02;;
55455;SDS011;63021;52.836;6.376;2022-11-20T06:28:47;17.73;;;12.55;;
55455;SDS011;63021;52.836;6.376;2022-11-20T06:31:14;22.10;;;13.10;;
55455;SDS011;63021;52.836;6.376;2022-11-20T06:33:41;19.63;;;12.80;;
55455;SDS011;63021;52.836;6.376;2022-11-20T06:36:09;19.48;;;12.65;;
55455;SDS011;63021;52.836;6.376;2022-11-20T06:38:37;22.83;;;12.65;;
55455;SDS011;63021;52.836;6.376;2022-11-20T06:41:03;19.25;;;13.23;;
55455;SDS011;63021;52.836;6.376;2022-11-20T06:43:30;18.77;;;12.35;;
55455;SDS011;63021;52.836;6.376;2022-11-20T06:45:56;20.80;;;13.63;;
55455;SDS011;63021;52.836;6.376;2022-11-20T06:48:22;21.58;;;13.07;;
55455;SDS011;63021;52.836;6.376;2022-11-20T06:50:49;20.65;;;12.85;;
55455;SDS011;63021;52.836;6.376;2022-11-20T06:53:16;18.02;;;12.32;;
55455;SDS011;63021;52.836;6.376;2022-11-20T06:55:45;19.65;;;12.50;;
55455;SDS011;63021;52.836;6.376;2022-11-20T06:58:12;18.65;;;12.50;;
55455;SDS011;63021;52.836;6.376;2022-11-20T07:00:38;19.30;;;12.90;;
55455;SDS011;63021;52.836;6.376;2022-11-20T07:03:04;21.17;;;13.23;;
55455;SDS011;63021;52.836;6.376;2022-11-20T07:05:31;16.73;;;11.20;;
55455;SDS011;63021;52.836;6.376;2022-11-20T07:07:59;18.35;;;12.57;;
55455;SDS011;63021;52.836;6.376;2022-11-20T07:10:25;20.25;;;13.35;;
55455;SDS011;63021;52.836;6.376;2022-11-20T07:12:51;18.17;;;12.38;;
55455;SDS011;63021;52.836;6.376;2022-11-20T07:15:18;20.08;;;13.27;;
55455;SDS011;63021;52.836;6.376;2022-11-20T07:17:44;20.10;;;13.32;;
55455;SDS011;63021;52.836;6.376;2022-11-20T07:20:18;22.67;;;14.32;;
55455;SDS011;63021;52.836;6.376;2022-11-20T07:22:44;22.80;;;14.35;;
55455;SDS011;63021;52.836;6.376;2022-11-20T07:25:10;20.55;;;14.05;;
55455;SDS011;63021;52.836;6.376;2022-11-20T07:27:36;22.23;;;14.35;;
55455;SDS011;63021;52.836;6.376;2022-11-20T07:30:04;23.75;;;14.60;;
55455;SDS011;63021;52.836;6.376;2022-11-20T07:32:29;23.85;;;16.38;;
55455;SDS011;63021;52.836;6.376;2022-11-20T07:34:55;26.30;;;17.00;;
55455;SDS011;63021;52.836;6.376;2022-11-20T07:37:20;22.30;;;14.80;;
55455;SDS011;63021;52.836;6.376;2022-11-20T07:39:45;21.73;;;14.93;;
55455;SDS011;63021;52.836;6.376;2022-11-20T07:42:11;21.42;;;13.93;;
55455;SDS011;63021;52.836;6.376;2022-11-20T07:44:37;19.95;;;13.88;;
55455;SDS011;63021;52.836;6.376;2022-11-20T07:49:33;16.73;;;12.68;;
55455;SDS011;63021;52.836;6.376;2022-11-20T07:51:58;20.92;;;11.95;;
55455;SDS011;63021;52.836;6.376;2022-11-20T07:54:23;19.40;;;13.27;;
55455;SDS011;63021;52.836;6.376;2022-11-20T07:56:49;19.58;;;12.68;;
55455;SDS011;63021;52.836;6.376;2022-11-20T07:59:15;18.92;;;13.10;;
55455;SDS011;63021;52.836;6.376;2022-11-20T08:01:41;19.17;;;12.98;;
55455;SDS011;63021;52.836;6.376;2022-11-20T08:04:07;20.75;;;13.60;;
55455;SDS011;63021;52.836;6.376;2022-11-20T08:06:34;18.35;;;13.07;;
55455;SDS011;63021;52.836;6.376;2022-11-20T08:09:00;20.48;;;14.55;;
55455;SDS011;63021;52.836;6.376;2022-11-20T08:11:25;22.25;;;13.65;;
55455;SDS011;63021;52.836;6.376;2022-11-20T08:14:10;23.50;;;13.70;;
55455;SDS011;63021;52.836;6.376;2022-11-20T08:16:45;20.20;;;13.35;;
55455;SDS011;63021;52.836;6.376;2022-11-20T08:19:12;21.48;;;13.07;;
55455;SDS011;63021;52.836;6.376;2022-11-20T08:21:39;19.77;;;13.60;;
55455;SDS011;63021;52.836;6.376;2022-11-20T08:24:05;23.67;;;14.07;;
55455;SDS011;63021;52.836;6.376;2022-11-20T08:26:32;18.65;;;12.25;;
55455;SDS011;63021;52.836;6.376;2022-11-20T08:28:58;19.88;;;12.90;;
55455;SDS011;63021;52.836;6.376;2022-11-20T08:31:24;17.42;;;12.50;;
55455;SDS011;63021;52.836;6.376;2022-11-20T08:33:51;18.67;;;12.50;;
55455;SDS011;63021;52.836;6.376;2022-11-20T08:36:17;17.40;;;11.68;;
55455;SDS011;63021;52.836;6.376;2022-11-20T08:38:51;16.73;;;11.85;;
55455;SDS011;63021;52.836;6.376;2022-11-20T08:41:17;18.30;;;12.93;;
55455;SDS011;63021;52.836;6.376;2022-11-20T08:43:49;20.33;;;13.68;;
55455;SDS011;63021;52.836;6.376;2022-11-20T08:46:15;21.23;;;13.00;;
55455;SDS011;63021;52.836;6.376;2022-11-20T08:48:41;20.48;;;12.65;;
55455;SDS011;63021;52.836;6.376;2022-11-20T08:51:07;20.48;;;12.23;;
55455;SDS011;63021;52.836;6.376;2022-11-20T08:53:32;16.67;;;11.73;;
55455;SDS011;63021;52.836;6.376;2022-11-20T08:55:58;18.35;;;12.98;;
55455;SDS011;63021;52.836;6.376;2022-11-20T08:58:24;18.77;;;12.18;;
55455;SDS011;63021;52.836;6.376;2022-11-20T09:00:50;24.98;;;14.90;;
55455;SDS011;63021;52.836;6.376;2022-11-20T09:03:15;23.85;;;15.13;;
55455;SDS011;63021;52.836;6.376;2022-11-20T09:05:41;27.17;;;15.05;;
55455;SDS011;63021;52.836;6.376;2022-11-20T09:08:09;21.05;;;13.32;;
55455;SDS011;63021;52.836;6.376;2022-11-20T09:10:35;21.67;;;14.63;;
55455;SDS011;63021;52.836;6.376;2022-11-20T09:13:01;19.45;;;12.80;;
55455;SDS011;63021;52.836;6.376;2022-11-20T09:15:27;19.42;;;13.63;;
55455;SDS011;63021;52.836;6.376;2022-11-20T09:17:56;19.00;;;12.23;;
55455;SDS011;63021;52.836;6.376;2022-11-20T09:20:30;17.92;;;12.75;;
55455;SDS011;63021;52.836;6.376;2022-11-20T09:22:56;19.02;;;12.00;;
55455;SDS011;63021;52.836;6.376;2022-11-20T09:25:22;17.38;;;11.73;;
55455;SDS011;63021;52.836;6.376;2022-11-20T09:27:54;19.90;;;12.70;;
55455;SDS011;63021;52.836;6.376;2022-11-20T09:30:20;22.10;;;12.50;;
55455;SDS011;63021;52.836;6.376;2022-11-20T09:32:45;20.52;;;14.02;;
55455;SDS011;63021;52.836;6.376;2022-11-20T09:35:10;18.38;;;12.40;;
55455;SDS011;63021;52.836;6.376;2022-11-20T09:37:36;28.50;;;13.48;;
55455;SDS011;63021;52.836;6.376;2022-11-20T09:40:02;19.27;;;13.15;;
55455;SDS011;63021;52.836;6.376;2022-11-20T09:45:23;16.15;;;12.25;;
55455;SDS011;63021;52.836;6.376;2022-11-20T09:50:41;20.13;;;12.70;;
55455;SDS011;63021;52.836;6.376;2022-11-20T09:55:51;16.63;;;11.45;;
55455;SDS011;63021;52.836;6.376;2022-11-20T09:58:31;14.65;;;10.90;;
55455;SDS011;63021;52.836;6.376;2022-11-20T10:01:15;18.13;;;11.80;;
55455;SDS011;63021;52.836;6.376;2022-11-20T10:06:34;14.63;;;11.35;;
55455;SDS011;63021;52.836;6.376;2022-11-20T10:17:03;15.85;;;10.48;;
55455;SDS011;63021;52.836;6.376;2022-11-20T10:23:00;14.52;;;9.43;;
55455;SDS011;63021;52.836;6.376;2022-11-20T10:25:44;13.45;;;9.45;;
55455;SDS011;63021;52.836;6.376;2022-11-20T10:31:36;15.82;;;9.60;;
55455;SDS011;63021;52.836;6.376;2022-11-20T10:37:09;14.98;;;10.10;;
55455;SDS011;63021;52.836;6.376;2022-11-20T10:39:39;11.60;;;9.20;;
55455;SDS011;63021;52.836;6.376;2022-11-20T10:42:08;13.13;;;9.75;;
55455;SDS011;63021;52.836;6.376;2022-11-20T10:44:39;11.43;;;8.90;;
55455;SDS011;63021;52.836;6.376;2022-11-20T10:47:25;14.68;;;9.90;;
55455;SDS011;63021;52.836;6.376;2022-11-20T10:49:55;12.70;;;9.52;;
55455;SDS011;63021;52.836;6.376;2022-11-20T10:52:35;11.70;;;8.32;;
55455;SDS011;63021;52.836;6.376;2022-11-20T10:55:10;10.98;;;8.20;;
55455;SDS011;63021;52.836;6.376;2022-11-20T11:00:24;10.82;;;7.75;;
55455;SDS011;63021;52.836;6.376;2022-11-20T11:02:50;11.80;;;8.15;;
55455;SDS011;63021;52.836;6.376;2022-11-20T11:07:55;11.18;;;7.75;;
55455;SDS011;63021;52.836;6.376;2022-11-20T11:10:24;11.40;;;8.70;;
55455;SDS011;63021;52.836;6.376;2022-11-20T11:12:56;10.25;;;7.63;;
55455;SDS011;63021;52.836;6.376;2022-11-20T11:15:26;9.15;;;6.80;;
55455;SDS011;63021;52.836;6.376;2022-11-20T11:17:55;9.80;;;7.30;;
55455;SDS011;63021;52.836;6.376;2022-11-20T11:20:22;11.82;;;7.60;;
55455;SDS011;63021;52.836;6.376;2022-11-20T11:22:50;9.80;;;7.10;;
55455;SDS011;63021;52.836;6.376;2022-11-20T11:28:00;10.68;;;7.88;;
55455;SDS011;63021;52.836;6.376;2022-11-20T11:30:27;9.55;;;7.00;;
55455;SDS011;63021;52.836;6.376;2022-11-20T11:33:04;10.60;;;8.13;;
55455;SDS011;63021;52.836;6.376;2022-11-20T11:35:31;10.55;;;7.88;;
55455;SDS011;63021;52.836;6.376;2022-11-20T11:38:06;8.85;;;6.90;;
55455;SDS011;63021;52.836;6.376;2022-11-20T11:40:41;10.57;;;7.55;;
55455;SDS011;63021;52.836;6.376;2022-11-20T11:43:07;10.55;;;7.60;;
55455;SDS011;63021;52.836;6.376;2022-11-20T11:48:59;12.52;;;7.68;;
55455;SDS011;63021;52.836;6.376;2022-11-20T11:54:18;11.20;;;7.68;;
55455;SDS011;63021;52.836;6.376;2022-11-20T11:56:49;13.63;;;8.50;;
55455;SDS011;63021;52.836;6.376;2022-11-20T12:05:03;13.65;;;7.78;;
55455;SDS011;63021;52.836;6.376;2022-11-20T12:10:30;9.18;;;7.28;;
55455;SDS011;63021;52.836;6.376;2022-11-20T12:16:14;7.68;;;6.35;;
55455;SDS011;63021;52.836;6.376;2022-11-20T12:18:42;8.82;;;7.35;;
55455;SDS011;63021;52.836;6.376;2022-11-20T12:53:54;10.07;;;8.90;;
55455;SDS011;63021;52.836;6.376;2022-11-20T13:02:25;11.27;;;9.18;;
55455;SDS011;63021;52.836;6.376;2022-11-20T13:07:25;12.52;;;9.90;;
55455;SDS011;63021;52.836;6.376;2022-11-20T13:09:53;13.23;;;9.52;;
55455;SDS011;63021;52.836;6.376;2022-11-20T13:20:17;12.93;;;10.15;;
55455;SDS011;63021;52.836;6.376;2022-11-20T13:22:48;14.88;;;10.65;;
55455;SDS011;63021;52.836;6.376;2022-11-20T13:25:26;15.43;;;10.48;;
55455;SDS011;63021;52.836;6.376;2022-11-20T13:27:52;14.48;;;10.68;;
55455;SDS011;63021;52.836;6.376;2022-11-20T13:30:22;13.90;;;10.02;;
55455;SDS011;63021;52.836;6.376;2022-11-20T13:32:50;14.88;;;10.98;;
55455;SDS011;63021;52.836;6.376;2022-11-20T13:35:28;15.43;;;11.88;;
55455;SDS011;63021;52.836;6.376;2022-11-20T13:38:05;14.23;;;10.73;;
55455;SDS011;63021;52.836;6.376;2022-11-20T13:40:31;13.98;;;10.50;;
55455;SDS011;63021;52.836;6.376;2022-11-20T13:46:05;14.70;;;10.65;;
55455;SDS011;63021;52.836;6.376;2022-11-20T13:48:33;14.73;;;10.73;;
55455;SDS011;63021;52.836;6.376;2022-11-20T13:57:00;15.65;;;11.02;;
55455;SDS011;63021;52.836;6.376;2022-11-20T13:59:43;12.73;;;10.13;;
55455;SDS011;63021;52.836;6.376;2022-11-20T14:02:20;16.35;;;11.35;;
55455;SDS011;63021;52.836;6.376;2022-11-20T14:04:48;16.83;;;11.45;;
55455;SDS011;63021;52.836;6.376;2022-11-20T14:07:18;20.10;;;11.35;;
55455;SDS011;63021;52.836;6.376;2022-11-20T14:09:53;15.68;;;11.35;;
55455;SDS011;63021;52.836;6.376;2022-11-20T14:12:21;17.00;;;11.63;;
55455;SDS011;63021;52.836;6.376;2022-11-20T14:14:52;15.85;;;11.30;;
55455;SDS011;63021;52.836;6.376;2022-11-20T14:19:54;24.45;;;14.23;;
55455;SDS011;63021;52.836;6.376;2022-11-20T14:22:26;18.00;;;13.20;;
55455;SDS011;63021;52.836;6.376;2022-11-20T14:27:27;17.90;;;11.35;;
55455;SDS011;63021;52.836;6.376;2022-11-20T14:29:52;15.38;;;10.85;;
55455;SDS011;63021;52.836;6.376;2022-11-20T14:32:18;18.80;;;12.45;;
55455;SDS011;63021;52.836;6.376;2022-11-20T14:34:47;18.38;;;11.60;;
55455;SDS011;63021;52.836;6.376;2022-11-20T14:37:21;17.70;;;11.35;;
55455;SDS011;63021;52.836;6.376;2022-11-20T14:39:53;15.27;;;11.38;;
55455;SDS011;63021;52.836;6.376;2022-11-20T14:42:21;17.27;;;12.20;;
55455;SDS011;63021;52.836;6.376;2022-11-20T14:44:49;18.00;;;12.25;;
55455;SDS011;63021;52.836;6.376;2022-11-20T14:47:21;15.50;;;11.55;;
55455;SDS011;63021;52.836;6.376;2022-11-20T14:49:49;13.80;;;10.13;;
55455;SDS011;63021;52.836;6.376;2022-11-20T14:52:17;14.15;;;10.43;;
55455;SDS011;63021;52.836;6.376;2022-11-20T14:54:53;15.57;;;11.80;;
55455;SDS011;63021;52.836;6.376;2022-11-20T14:57:27;13.63;;;10.60;;
55455;SDS011;63021;52.836;6.376;2022-11-20T15:02:40;15.15;;;11.20;;
55455;SDS011;63021;52.836;6.376;2022-11-20T15:05:06;16.23;;;11.18;;
55455;SDS011;63021;52.836;6.376;2022-11-20T15:07:33;16.48;;;11.48;;
55455;SDS011;63021;52.836;6.376;2022-11-20T15:10:04;19.95;;;11.82;;
55455;SDS011;63021;52.836;6.376;2022-11-20T15:12:39;18.98;;;12.38;;
55455;SDS011;63021;52.836;6.376;2022-11-20T15:15:10;15.40;;;11.35;;
55455;SDS011;63021;52.836;6.376;2022-11-20T15:17:39;15.07;;;10.20;;
55455;SDS011;63021;52.836;6.376;2022-11-20T15:20:09;16.27;;;11.70;;
55455;SDS011;63021;52.836;6.376;2022-11-20T15:22:38;17.65;;;11.13;;
55455;SDS011;63021;52.836;6.376;2022-11-20T15:25:10;19.33;;;12.82;;
55455;SDS011;63021;52.836;6.376;2022-11-20T15:27:41;16.67;;;11.68;;
55455;SDS011;63021;52.836;6.376;2022-11-20T15:30:15;14.05;;;11.43;;
55455;SDS011;63021;52.836;6.376;2022-11-20T15:32:43;17.50;;;11.45;;
55455;SDS011;63021;52.836;6.376;2022-11-20T15:35:09;17.33;;;12.55;;
55455;SDS011;63021;52.836;6.376;2022-11-20T15:37:35;19.05;;;12.70;;
55455;SDS011;63021;52.836;6.376;2022-11-20T15:40:01;17.30;;;12.30;;
55455;SDS011;63021;52.836;6.376;2022-11-20T15:42:27;23.67;;;13.13;;
55455;SDS011;63021;52.836;6.376;2022-11-20T15:44:52;28.30;;;15.80;;
55455;SDS011;63021;52.836;6.376;2022-11-20T15:47:18;20.73;;;14.50;;
55455;SDS011;63021;52.836;6.376;2022-11-20T15:49:50;18.05;;;12.07;;
55455;SDS011;63021;52.836;6.376;2022-11-20T15:52:15;15.80;;;12.20;;
55455;SDS011;63021;52.836;6.376;2022-11-20T15:54:41;19.65;;;12.93;;
55455;SDS011;63021;52.836;6.376;2022-11-20T15:57:06;17.08;;;12.82;;
55455;SDS011;63021;52.836;6.376;2022-11-20T15:59:32;19.38;;;12.45;;
55455;SDS011;63021;52.836;6.376;2022-11-20T16:01:57;16.67;;;12.75;;
55455;SDS011;63021;52.836;6.376;2022-11-20T16:04:23;16.02;;;12.32;;
55455;SDS011;63021;52.836;6.376;2022-11-20T16:06:48;17.65;;;12.20;;
55455;SDS011;63021;52.836;6.376;2022-11-20T16:09:16;20.13;;;13.10;;
55455;SDS011;63021;52.836;6.376;2022-11-20T16:11:41;19.20;;;12.18;;
55455;SDS011;63021;52.836;6.376;2022-11-20T16:14:08;17.92;;;13.30;;
55455;SDS011;63021;52.836;6.376;2022-11-20T16:16:54;17.00;;;13.20;;
55455;SDS011;63021;52.836;6.376;2022-11-20T16:19:19;20.60;;;13.93;;
55455;SDS011;63021;52.836;6.376;2022-11-20T16:21:44;21.33;;;14.52;;
55455;SDS011;63021;52.836;6.376;2022-11-20T16:24:11;22.25;;;15.10;;
55455;SDS011;63021;52.836;6.376;2022-11-20T16:26:37;20.52;;;14.45;;
55455;SDS011;63021;52.836;6.376;2022-11-20T16:29:03;21.17;;;15.00;;
55455;SDS011;63021;52.836;6.376;2022-11-20T16:31:31;22.38;;;16.15;;
55455;SDS011;63021;52.836;6.376;2022-11-20T16:33:58;22.25;;;14.98;;
55455;SDS011;63021;52.836;6.376;2022-11-20T16:36:26;24.52;;;16.25;;